createdAt,value
2018-08-30T00:01:09.244Z,18.10
2018-08-30T00:03:38.333Z,18.10
2018-08-30T00:06:07.477Z,18.00
2018-08-30T00:08:36.681Z,18.00
2018-08-30T00:11:05.886Z,18.00
2018-08-30T00:13:35.099Z,18.00
2018-08-30T00:16:04.173Z,18.00
2018-08-30T00:18:33.375Z,18.10
2018-08-30T00:21:02.553Z,18.10
2018-08-30T00:23:31.783Z,18.10
2018-08-30T00:26:01.015Z,18.20
2018-08-30T00:28:30.299Z,18.10
2018-08-30T00:30:59.483Z,18.10
2018-08-30T00:33:28.566Z,18.00
2018-08-30T00:35:57.657Z,18.00
2018-08-30T00:38:27.308Z,18.00
2018-08-30T00:40:56.406Z,18.00
2018-08-30T00:43:25.546Z,18.00
2018-08-30T00:45:54.758Z,18.00
2018-08-30T00:48:23.949Z,18.00
2018-08-30T00:50:53.122Z,18.00
2018-08-30T00:53:22.294Z,17.80
2018-08-30T00:55:51.457Z,17.80
2018-08-30T00:58:20.588Z,17.70
2018-08-30T01:00:49.723Z,17.80
2018-08-30T01:03:18.889Z,17.90
2018-08-30T01:05:48.238Z,17.80
2018-08-30T01:08:17.418Z,17.90
2018-08-30T01:10:46.589Z,17.80
2018-08-30T01:13:15.774Z,17.80
2018-08-30T01:15:44.967Z,17.90
2018-08-30T01:18:14.233Z,17.80
2018-08-30T01:20:43.382Z,17.90
2018-08-30T01:23:12.459Z,17.90
2018-08-30T01:25:41.634Z,17.90
2018-08-30T01:28:10.782Z,17.90
2018-08-30T01:30:40.585Z,17.90
2018-08-30T01:33:10.684Z,17.90
2018-08-30T01:35:40.674Z,17.80
2018-08-30T01:38:10.681Z,17.90
2018-08-30T01:40:40.643Z,18.00
2018-08-30T01:43:10.770Z,18.00
2018-08-30T01:45:40.658Z,17.90
2018-08-30T01:48:10.828Z,18.00
2018-08-30T01:50:40.747Z,17.90
2018-08-30T01:53:10.747Z,18.00
2018-08-30T01:55:40.695Z,17.90
2018-08-30T01:58:10.898Z,17.90
2018-08-30T02:00:40.881Z,17.90
2018-08-30T02:03:10.830Z,17.90
2018-08-30T02:05:40.926Z,18.00
2018-08-30T02:08:10.854Z,18.00
2018-08-30T02:10:40.940Z,17.90
2018-08-30T02:13:11.113Z,18.10
2018-08-30T02:15:41.018Z,18.00
2018-08-30T02:18:11.155Z,18.20
2018-08-30T02:20:40.962Z,18.20
2018-08-30T02:23:11.241Z,18.00
2018-08-30T02:25:41.086Z,18.00
2018-08-30T02:28:11.311Z,18.00
2018-08-30T02:30:41.150Z,18.00
2018-08-30T02:33:11.140Z,18.10
2018-08-30T02:35:41.281Z,17.90
2018-08-30T02:38:11.345Z,18.00
2018-08-30T02:40:41.218Z,18.00
2018-08-30T02:43:11.256Z,18.10
2018-08-30T02:45:41.304Z,18.00
2018-08-30T02:48:11.356Z,17.90
2018-08-30T02:50:41.371Z,18.00
2018-08-30T02:53:11.390Z,18.00
2018-08-30T02:55:41.379Z,18.10
2018-08-30T02:58:11.430Z,18.10
2018-08-30T03:00:41.454Z,18.10
2018-08-30T03:03:11.562Z,18.10
2018-08-30T03:05:41.647Z,18.10
2018-08-30T03:08:11.791Z,18.10
2018-08-30T03:10:41.714Z,17.90
2018-08-30T03:13:11.626Z,18.00
2018-08-30T03:15:41.557Z,18.00
2018-08-30T03:18:11.509Z,18.10
2018-08-30T03:20:41.570Z,18.10
2018-08-30T03:23:11.619Z,18.00
2018-08-30T03:25:41.703Z,18.00
2018-08-30T03:28:11.747Z,18.00
2018-08-30T03:30:41.885Z,18.00
2018-08-30T03:33:11.627Z,18.00
2018-08-30T03:35:41.671Z,18.00
2018-08-30T03:38:11.822Z,18.00
2018-08-30T03:40:42.448Z,17.90
2018-08-30T03:43:12.578Z,18.10
2018-08-30T03:45:41.850Z,17.90
2018-08-30T03:48:11.765Z,17.90
2018-08-30T03:50:42.122Z,17.90
2018-08-30T03:53:11.892Z,17.90
2018-08-30T03:55:42.088Z,17.90
2018-08-30T03:58:12.126Z,17.90
2018-08-30T04:00:42.018Z,17.80
2018-08-30T04:03:12.163Z,17.80
2018-08-30T04:05:42.162Z,17.90
2018-08-30T04:08:12.134Z,17.90
2018-08-30T04:10:42.058Z,17.80
2018-08-30T04:13:12.131Z,17.80
2018-08-30T04:15:42.158Z,17.90
2018-08-30T04:18:12.195Z,17.80
2018-08-30T04:20:42.206Z,17.90
2018-08-30T04:23:12.217Z,17.90
2018-08-30T04:25:42.226Z,17.80
2018-08-30T04:28:12.350Z,17.90
2018-08-30T04:30:42.321Z,17.90
2018-08-30T04:33:12.295Z,17.80
2018-08-30T04:35:42.281Z,17.70
2018-08-30T04:38:12.314Z,17.70
2018-08-30T04:40:42.352Z,17.60
2018-08-30T04:43:12.357Z,17.60
2018-08-30T04:45:42.437Z,17.60
2018-08-30T04:48:12.584Z,17.40
2018-08-30T04:50:42.490Z,17.30
2018-08-30T04:53:12.506Z,17.30
2018-08-30T04:55:42.538Z,17.20
2018-08-30T04:58:12.562Z,17.30
2018-08-30T05:00:42.554Z,17.30
2018-08-30T05:03:12.548Z,17.40
2018-08-30T05:05:42.517Z,17.40
2018-08-30T05:08:12.664Z,17.30
2018-08-30T05:10:42.661Z,17.40
2018-08-30T05:13:12.663Z,17.40
2018-08-30T05:15:42.803Z,17.30
2018-08-30T05:18:12.866Z,17.40
2018-08-30T05:20:42.714Z,17.30
2018-08-30T05:23:12.806Z,17.20
2018-08-30T05:25:42.960Z,17.30
2018-08-30T05:28:12.965Z,17.40
2018-08-30T05:30:42.823Z,17.40
2018-08-30T05:33:12.858Z,17.50
2018-08-30T05:35:43.147Z,17.40
2018-08-30T05:38:12.991Z,17.20
2018-08-30T05:40:43.030Z,17.20
2018-08-30T05:43:13.046Z,17.30
2018-08-30T05:45:43.113Z,17.30
2018-08-30T05:48:13.097Z,17.30
2018-08-30T05:50:43.178Z,17.40
2018-08-30T05:53:13.144Z,17.20
2018-08-30T05:55:43.150Z,17.20
2018-08-30T05:58:13.135Z,17.20
2018-08-30T06:00:43.274Z,17.10
2018-08-30T06:03:13.252Z,17.10
2018-08-30T06:05:43.277Z,17.00
2018-08-30T06:08:13.384Z,17.00
2018-08-30T06:10:43.233Z,17.00
2018-08-30T06:13:13.526Z,17.10
2018-08-30T06:15:43.375Z,17.10
2018-08-30T06:18:13.645Z,17.00
2018-08-30T06:20:43.491Z,17.10
2018-08-30T06:23:13.442Z,17.10
2018-08-30T06:25:43.574Z,17.10
2018-08-30T06:28:13.638Z,17.10
2018-08-30T06:30:43.655Z,17.00
2018-08-30T06:33:13.688Z,17.10
2018-08-30T06:35:43.590Z,17.20
2018-08-30T06:38:13.799Z,17.20
2018-08-30T06:40:43.765Z,17.10
2018-08-30T06:43:13.762Z,17.10
2018-08-30T06:45:43.782Z,17.10
2018-08-30T06:48:13.722Z,17.10
2018-08-30T06:50:43.922Z,17.10
2018-08-30T06:53:13.830Z,17.00
2018-08-30T06:55:43.842Z,17.00
2018-08-30T06:58:13.850Z,17.00
2018-08-30T07:00:44.214Z,17.00
2018-08-30T07:03:13.843Z,16.80
2018-08-30T07:05:42.874Z,16.70
2018-08-30T07:08:12.213Z,16.50
2018-08-30T07:10:41.282Z,16.50
2018-08-30T07:13:10.386Z,16.50
2018-08-30T07:15:39.497Z,16.40
2018-08-30T07:18:08.677Z,16.30
2018-08-30T07:20:37.966Z,16.20
2018-08-30T07:23:07.150Z,16.10
2018-08-30T07:25:36.217Z,16.20
2018-08-30T07:28:05.371Z,16.20
2018-08-30T07:30:34.566Z,16.30
2018-08-30T07:33:03.829Z,16.30
2018-08-30T07:35:33.050Z,16.30
2018-08-30T07:38:02.211Z,16.30
2018-08-30T07:40:31.439Z,16.30
2018-08-30T07:43:00.602Z,16.40
2018-08-30T07:45:29.745Z,16.50
2018-08-30T07:47:59.041Z,16.50
2018-08-30T07:50:28.218Z,16.40
2018-08-30T07:52:57.397Z,16.50
2018-08-30T07:55:27.535Z,16.50
2018-08-30T07:57:56.960Z,16.70
2018-08-30T08:00:27.171Z,16.70
2018-08-30T08:02:56.609Z,16.70
2018-08-30T08:05:25.806Z,16.70
2018-08-30T08:07:55.002Z,16.70
2018-08-30T08:10:24.087Z,16.80
2018-08-30T08:12:59.975Z,16.80
2018-08-30T08:15:29.121Z,16.80
2018-08-30T08:17:58.258Z,16.70
2018-08-30T08:20:27.406Z,16.90
2018-08-30T08:22:56.664Z,17.00
2018-08-30T08:25:25.859Z,16.90
2018-08-30T08:27:54.955Z,16.90
2018-08-30T08:30:24.215Z,17.00
2018-08-30T08:32:53.414Z,17.30
2018-08-30T08:35:22.649Z,17.50
2018-08-30T08:37:51.818Z,17.60
2018-08-30T08:40:20.978Z,17.70
2018-08-30T08:42:50.111Z,17.70
2018-08-30T08:45:19.206Z,17.80
2018-08-30T08:47:48.439Z,17.80
2018-08-30T08:50:17.623Z,17.60
2018-08-30T08:52:46.781Z,17.70
2018-08-30T08:55:15.910Z,17.70
2018-08-30T08:57:45.032Z,17.60
2018-08-30T09:00:14.099Z,17.70
2018-08-30T09:02:43.206Z,17.60
2018-08-30T09:05:12.242Z,17.50
2018-08-30T09:07:41.350Z,17.60
2018-08-30T09:10:10.459Z,17.40
2018-08-30T09:12:39.668Z,17.40
2018-08-30T09:15:08.752Z,17.50
2018-08-30T09:17:38.305Z,17.40
2018-08-30T09:20:08.421Z,17.30
2018-08-30T09:22:38.432Z,17.40
2018-08-30T09:25:08.394Z,17.30
2018-08-30T09:27:38.443Z,17.30
2018-08-30T09:30:08.355Z,17.50
2018-08-30T09:32:38.538Z,17.60
2018-08-30T09:35:08.439Z,17.50
2018-08-30T09:37:38.611Z,17.50
2018-08-30T09:40:08.617Z,17.50
2018-08-30T09:42:38.722Z,17.60
2018-08-30T09:45:08.559Z,17.60
2018-08-30T09:47:38.748Z,17.80
2018-08-30T09:50:08.706Z,18.00
2018-08-30T09:52:38.802Z,18.10
2018-08-30T09:55:08.747Z,18.40
2018-08-30T09:57:39.141Z,18.70
2018-08-30T10:00:13.602Z,18.70
2018-08-30T10:02:48.126Z,18.90
2018-08-30T10:05:17.705Z,19.00
2018-08-30T10:07:46.894Z,19.00
2018-08-30T10:10:16.085Z,19.00
2018-08-30T10:12:45.287Z,19.00
2018-08-30T10:15:14.370Z,19.10
2018-08-30T10:17:43.677Z,19.00
2018-08-30T10:20:12.906Z,18.80
2018-08-30T10:22:42.013Z,18.90
2018-08-30T10:25:11.089Z,18.70
2018-08-30T10:27:40.302Z,18.60
2018-08-30T10:30:09.774Z,18.50
2018-08-30T10:32:39.001Z,18.40
2018-08-30T10:35:08.067Z,18.60
2018-08-30T10:37:37.259Z,18.40
2018-08-30T10:40:06.710Z,18.20
2018-08-30T10:42:38.824Z,18.20
2018-08-30T10:45:07.955Z,18.10
2018-08-30T10:47:37.244Z,18.20
2018-08-30T10:50:06.645Z,18.30
2018-08-30T10:52:35.845Z,18.60
2018-08-30T10:55:05.323Z,19.00
2018-08-30T10:57:34.452Z,19.20
2018-08-30T11:00:03.648Z,19.30
2018-08-30T11:02:32.686Z,19.60
2018-08-30T11:05:01.737Z,19.70
2018-08-30T11:07:30.947Z,19.30
2018-08-30T11:10:00.155Z,19.50
2018-08-30T11:12:29.189Z,19.50
2018-08-30T11:14:58.408Z,19.40
2018-08-30T11:17:27.591Z,19.10
2018-08-30T11:19:56.727Z,18.80
2018-08-30T11:22:25.914Z,18.70
2018-08-30T11:24:55.045Z,18.70
2018-08-30T11:27:24.182Z,18.80
2018-08-30T11:29:53.406Z,18.60
2018-08-30T11:32:22.511Z,18.70
2018-08-30T11:34:51.614Z,18.80
2018-08-30T11:37:20.780Z,18.90
2018-08-30T11:39:50.014Z,18.90
2018-08-30T11:42:19.458Z,18.80
2018-08-30T11:44:48.691Z,19.00
2018-08-30T11:47:17.767Z,19.10
2018-08-30T11:49:46.902Z,19.00
2018-08-30T11:52:16.067Z,19.10
2018-08-30T11:54:45.134Z,19.10
2018-08-30T11:57:14.291Z,19.00
2018-08-30T11:59:43.488Z,19.00
2018-08-30T12:02:12.806Z,19.20
2018-08-30T12:04:41.896Z,19.00
2018-08-30T12:07:11.478Z,19.10
2018-08-30T12:09:41.453Z,19.10
2018-08-30T12:12:11.428Z,19.20
2018-08-30T12:14:41.437Z,19.20
2018-08-30T12:17:11.528Z,19.10
2018-08-30T12:19:41.497Z,19.10
2018-08-30T12:22:11.502Z,19.00
2018-08-30T12:24:41.644Z,19.00
2018-08-30T12:27:11.601Z,19.00
2018-08-30T12:29:41.595Z,19.00
2018-08-30T12:32:11.569Z,18.90
2018-08-30T12:34:41.894Z,19.00
2018-08-30T12:37:11.827Z,19.00
2018-08-30T12:39:41.820Z,19.20
2018-08-30T12:42:11.837Z,19.40
2018-08-30T12:44:41.913Z,19.20
2018-08-30T12:47:11.877Z,19.30
2018-08-30T12:49:41.931Z,19.60
2018-08-30T12:52:11.892Z,19.90
2018-08-30T12:54:42.060Z,19.70
2018-08-30T12:57:12.044Z,19.40
2018-08-30T12:59:43.033Z,19.50
2018-08-30T13:02:12.211Z,19.40
2018-08-30T13:04:42.420Z,19.10
2018-08-30T13:07:12.288Z,19.10
2018-08-30T13:09:42.308Z,19.10
2018-08-30T13:12:12.554Z,19.00
2018-08-30T13:14:42.424Z,18.80
2018-08-30T13:17:12.437Z,18.60
2018-08-30T13:19:42.467Z,18.50
2018-08-30T13:22:12.975Z,18.50
2018-08-30T13:24:42.634Z,18.50
2018-08-30T13:27:12.633Z,18.40
2018-08-30T13:29:42.504Z,18.30
2018-08-30T13:32:12.744Z,18.20
2018-08-30T13:34:42.808Z,18.20
2018-08-30T13:37:12.835Z,18.20
2018-08-30T13:39:42.939Z,18.20
2018-08-30T13:42:12.862Z,18.20
2018-08-30T13:44:43.111Z,18.30
2018-08-30T13:47:13.031Z,18.30
2018-08-30T13:49:42.720Z,18.30
2018-08-30T13:52:12.743Z,18.10
2018-08-30T13:54:42.860Z,18.20
2018-08-30T13:57:12.929Z,18.20
2018-08-30T13:59:43.003Z,18.20
2018-08-30T14:02:12.830Z,18.40
2018-08-30T14:04:42.727Z,18.60
2018-08-30T14:07:13.001Z,18.40
2018-08-30T14:09:42.893Z,18.60
2018-08-30T14:12:13.104Z,18.30
2018-08-30T14:14:42.925Z,18.50
2018-08-30T14:17:12.786Z,18.40
2018-08-30T14:19:42.752Z,18.70
2018-08-30T14:22:12.886Z,18.90
2018-08-30T14:24:42.658Z,19.20
2018-08-30T14:27:12.905Z,19.50
2018-08-30T14:29:42.767Z,19.50
2018-08-30T14:32:12.791Z,19.30
2018-08-30T14:34:42.870Z,19.20
2018-08-30T14:37:13.107Z,19.00
2018-08-30T14:39:43.013Z,19.00
2018-08-30T14:42:12.875Z,18.90
2018-08-30T14:44:42.955Z,18.80
2018-08-30T14:47:13.126Z,18.90
2018-08-30T14:49:42.999Z,18.80
2018-08-30T14:52:13.167Z,18.60
2018-08-30T14:54:43.046Z,18.70
2018-08-30T14:57:13.107Z,18.40
2018-08-30T14:59:43.103Z,18.40
2018-08-30T15:02:12.977Z,18.60
2018-08-30T15:04:43.009Z,18.30
2018-08-30T15:07:13.114Z,18.50
2018-08-30T15:09:43.058Z,18.30
2018-08-30T15:12:13.314Z,18.40
2018-08-30T15:14:43.290Z,18.20
2018-08-30T15:17:13.201Z,18.40
2018-08-30T15:19:43.312Z,18.30
2018-08-30T15:22:13.386Z,18.50
2018-08-30T15:24:43.366Z,18.50
2018-08-30T15:27:13.500Z,18.70
2018-08-30T15:29:43.433Z,18.70
2018-08-30T15:32:13.478Z,18.60
2018-08-30T15:34:43.419Z,18.60
2018-08-30T15:37:13.454Z,18.70
2018-08-30T15:39:43.530Z,18.60
2018-08-30T15:42:13.543Z,18.50
2018-08-30T15:44:43.619Z,18.50
2018-08-30T15:47:13.633Z,18.40
2018-08-30T15:49:43.539Z,18.40
2018-08-30T15:52:13.617Z,18.50
2018-08-30T15:54:43.599Z,18.60
2018-08-30T15:57:13.755Z,18.60
2018-08-30T15:59:43.656Z,18.70
2018-08-30T16:02:13.555Z,18.70
2018-08-30T16:04:43.835Z,18.60
2018-08-30T16:07:13.691Z,18.70
2018-08-30T16:09:43.725Z,18.70
2018-08-30T16:12:13.832Z,18.60
2018-08-30T16:14:43.766Z,18.80
2018-08-30T16:17:13.852Z,18.60
2018-08-30T16:19:43.809Z,18.50
2018-08-30T16:22:13.910Z,18.40
2018-08-30T16:24:44.006Z,18.40
2018-08-30T16:27:13.862Z,18.30
2018-08-30T16:29:43.893Z,18.50
2018-08-30T16:32:13.933Z,18.40
2018-08-30T16:34:44.043Z,18.40
2018-08-30T16:37:14.056Z,18.50
2018-08-30T16:39:44.258Z,18.30
2018-08-30T16:42:14.188Z,18.20
2018-08-30T16:44:44.029Z,18.20
2018-08-30T16:47:13.968Z,18.10
2018-08-30T16:49:44.236Z,18.20
2018-08-30T16:52:14.214Z,18.30
2018-08-30T16:54:44.346Z,18.10
2018-08-30T16:57:14.317Z,18.10
2018-08-30T16:59:44.357Z,18.40
2018-08-30T17:02:14.311Z,18.50
2018-08-30T17:04:44.371Z,18.50
2018-08-30T17:07:14.307Z,18.40
2018-08-30T17:09:44.398Z,18.20
2018-08-30T17:12:14.405Z,18.20
2018-08-30T17:14:44.371Z,17.90
2018-08-30T17:17:14.624Z,17.90
2018-08-30T17:19:44.464Z,17.80
2018-08-30T17:22:14.542Z,17.90
2018-08-30T17:24:44.544Z,18.00
2018-08-30T17:27:14.559Z,18.00
2018-08-30T17:29:44.619Z,17.90
2018-08-30T17:32:14.499Z,17.90
2018-08-30T17:34:44.716Z,17.90
2018-08-30T17:37:14.639Z,17.70
2018-08-30T17:39:44.596Z,17.70
2018-08-30T17:42:14.598Z,18.00
2018-08-30T17:44:44.597Z,17.70
2018-08-30T17:47:14.615Z,17.80
2018-08-30T17:49:44.902Z,17.80
2018-08-30T17:52:14.714Z,17.80
2018-08-30T17:54:44.772Z,17.60
2018-08-30T17:57:14.853Z,17.60
2018-08-30T17:59:44.822Z,17.60
2018-08-30T18:02:14.810Z,17.50
2018-08-30T18:04:44.902Z,17.50
2018-08-30T18:07:14.958Z,17.60
2018-08-30T18:09:45.090Z,17.70
2018-08-30T18:12:14.927Z,17.70
2018-08-30T18:14:45.035Z,17.70
2018-08-30T18:17:15.095Z,17.70
2018-08-30T18:19:45.063Z,17.70
2018-08-30T18:22:15.022Z,17.70
2018-08-30T18:24:45.023Z,17.60
2018-08-30T18:27:14.991Z,17.60
2018-08-30T18:29:45.110Z,17.40
2018-08-30T18:32:15.198Z,17.40
2018-08-30T18:34:45.174Z,17.40
2018-08-30T18:37:15.138Z,17.40
2018-08-30T18:39:45.258Z,17.50
2018-08-30T18:42:15.302Z,17.50
2018-08-30T18:44:45.254Z,17.60
2018-08-30T18:47:15.397Z,17.60
2018-08-30T18:49:45.533Z,17.50
2018-08-30T18:52:15.314Z,17.50
2018-08-30T18:54:45.316Z,17.70
2018-08-30T18:57:15.240Z,17.60
2018-08-30T18:59:45.468Z,17.50
2018-08-30T19:02:15.411Z,17.50
2018-08-30T19:04:44.639Z,17.50
2018-08-30T19:07:13.766Z,17.50
2018-08-30T19:09:42.994Z,17.50
2018-08-30T19:12:12.184Z,17.50
2018-08-30T19:14:41.390Z,17.50
2018-08-30T19:17:15.810Z,17.40
2018-08-30T19:19:45.485Z,17.40
2018-08-30T19:22:15.529Z,17.50
2018-08-30T19:24:50.608Z,17.40
2018-08-30T19:27:19.813Z,17.30
2018-08-30T19:29:54.367Z,17.40
2018-08-30T19:32:23.553Z,17.50
2018-08-30T19:34:52.794Z,17.60
2018-08-30T19:37:21.990Z,17.40
2018-08-30T19:39:51.187Z,17.20
2018-08-30T19:42:20.335Z,17.20
2018-08-30T19:44:49.442Z,17.20
2018-08-30T19:47:18.710Z,17.20
2018-08-30T19:49:47.959Z,17.20
2018-08-30T19:52:17.150Z,17.20
2018-08-30T19:54:46.323Z,17.10
2018-08-30T19:57:15.776Z,16.90
2018-08-30T19:59:45.844Z,17.00
2018-08-30T20:02:15.960Z,16.90
2018-08-30T20:04:46.275Z,16.80
2018-08-30T20:07:15.938Z,16.80
2018-08-30T20:09:45.838Z,16.70
2018-08-30T20:12:17.156Z,16.90
2018-08-30T20:14:46.441Z,17.10
2018-08-30T20:17:16.078Z,17.10
2018-08-30T20:19:46.170Z,17.00
2018-08-30T20:22:16.262Z,17.00
2018-08-30T20:24:46.134Z,16.80
2018-08-30T20:27:16.146Z,16.70
2018-08-30T20:29:46.282Z,16.70
2018-08-30T20:32:16.220Z,16.70
2018-08-30T20:34:46.339Z,16.70
2018-08-30T20:37:16.355Z,16.60
2018-08-30T20:39:46.270Z,16.60
2018-08-30T20:42:16.383Z,16.50
2018-08-30T20:44:46.320Z,16.60
2018-08-30T20:47:16.333Z,16.60
2018-08-30T20:49:46.390Z,16.60
2018-08-30T20:52:16.496Z,16.60
2018-08-30T20:54:46.387Z,16.60
2018-08-30T20:57:16.371Z,16.80
2018-08-30T20:59:46.466Z,16.90
2018-08-30T21:02:16.571Z,17.00
2018-08-30T21:04:46.558Z,16.90
2018-08-30T21:07:16.598Z,17.00
2018-08-30T21:09:46.597Z,16.80
2018-08-30T21:12:16.726Z,16.80
2018-08-30T21:14:46.592Z,16.70
2018-08-30T21:17:16.786Z,16.60
2018-08-30T21:19:46.604Z,16.60
2018-08-30T21:22:16.737Z,16.70
2018-08-30T21:24:46.892Z,16.60
2018-08-30T21:27:16.850Z,16.60
2018-08-30T21:29:46.993Z,16.50
2018-08-30T21:32:16.970Z,16.50
2018-08-30T21:34:46.854Z,16.60
2018-08-30T21:37:16.933Z,16.70
2018-08-30T21:39:47.042Z,16.60
2018-08-30T21:42:16.971Z,16.50
2018-08-30T21:44:46.996Z,16.50
2018-08-30T21:47:17.126Z,16.40
2018-08-30T21:49:47.120Z,16.40
2018-08-30T21:52:17.097Z,16.50
2018-08-30T21:54:47.446Z,16.60
2018-08-30T21:57:17.148Z,16.50
2018-08-30T21:59:47.130Z,16.60
2018-08-30T22:02:17.258Z,16.50
2018-08-30T22:04:47.173Z,16.90
2018-08-30T22:07:17.213Z,16.90
2018-08-30T22:09:47.134Z,17.00
2018-08-30T22:12:17.322Z,17.00
2018-08-30T22:14:47.220Z,16.90
2018-08-30T22:17:17.398Z,16.60
2018-08-30T22:19:47.467Z,16.50
2018-08-30T22:22:17.314Z,16.60
2018-08-30T22:24:47.493Z,16.60
2018-08-30T22:27:17.634Z,16.60
2018-08-30T22:29:47.567Z,16.60
2018-08-30T22:32:17.550Z,16.60
2018-08-30T22:34:47.378Z,16.60
2018-08-30T22:37:17.538Z,16.70
2018-08-30T22:39:47.646Z,16.60
2018-08-30T22:42:17.726Z,16.50
2018-08-30T22:44:47.688Z,16.50
2018-08-30T22:47:17.977Z,16.50
2018-08-30T22:49:47.621Z,16.50
2018-08-30T22:52:17.685Z,16.60
2018-08-30T22:54:47.627Z,16.80
2018-08-30T22:57:17.775Z,16.70
2018-08-30T22:59:47.738Z,17.00
2018-08-30T23:02:17.758Z,17.00
2018-08-30T23:04:47.824Z,16.70
2018-08-30T23:07:17.830Z,16.70
2018-08-30T23:09:47.877Z,16.70
2018-08-30T23:12:24.380Z,16.60
2018-08-30T23:14:53.522Z,16.50
2018-08-30T23:17:22.778Z,16.50
2018-08-30T23:19:51.983Z,16.50
2018-08-30T23:22:25.965Z,16.30
2018-08-30T23:24:55.141Z,16.20
2018-08-30T23:27:24.350Z,16.10
2018-08-30T23:29:53.577Z,16.20
2018-08-30T23:32:22.810Z,16.10
2018-08-30T23:34:52.047Z,16.20
2018-08-30T23:37:21.206Z,16.30
2018-08-30T23:39:50.334Z,16.20
2018-08-30T23:42:19.471Z,16.20
2018-08-30T23:44:48.615Z,16.20
2018-08-30T23:47:18.249Z,16.20
2018-08-30T23:49:48.428Z,16.00
2018-08-30T23:52:18.303Z,16.30
2018-08-30T23:54:48.289Z,16.20
2018-08-30T23:57:18.377Z,16.10
